Time;durP1;ratioP1;P1;durP2;ratioP2;P2;SDS_P1;SDS_P2;PMS_P1;PMS_P2;Temp;Humidity;BMP_temperature;BMP_pressure;BME280_temperature;BME280_humidity;BME280_pressure;Samples;Min_cycle;Max_cycle;Signal;HPM_P1;HPM_P2
2022/04/12 00:00:40;;;;;;;1.80;0.93;;;22.60;38.60;;;;;;5045361;28;20050;-43
2022/04/12 00:03:06;;;;;;;1.88;0.90;;;22.60;37.90;;;;;;5044916;28;20524;-43
2022/04/12 00:05:33;;;;;;;2.08;0.95;;;22.60;38.00;;;;;;5045356;28;20052;-42
2022/04/12 00:07:59;;;;;;;1.45;0.73;;;22.60;38.00;;;;;;5045112;28;20040;-43
2022/04/12 00:10:25;;;;;;;1.52;0.85;;;22.60;37.90;;;;;;5045265;28;20465;-43
2022/04/12 00:12:51;;;;;;;1.98;0.80;;;22.60;37.90;;;;;;5044314;28;20859;-43
2022/04/12 00:15:17;;;;;;;2.80;1.00;;;22.60;37.90;;;;;;5045000;28;20021;-43
2022/04/12 00:20:27;;;;;;;2.40;1.30;;;22.50;37.90;;;;;;5045139;28;20384;-43
2022/04/12 00:22:54;;;;;;;3.17;1.38;;;22.50;37.90;;;;;;5044534;28;20033;-43
2022/04/12 00:25:22;;;;;;;1.73;0.80;;;22.50;38.00;;;;;;5040748;28;20034;-43
2022/04/12 00:27:49;;;;;;;2.35;0.90;;;22.50;37.90;;;;;;5044059;28;20033;-43
2022/04/12 00:30:15;;;;;;;1.75;0.85;;;22.50;37.90;;;;;;5040382;28;20095;-43
2022/04/12 00:32:41;;;;;;;1.50;0.70;;;22.50;37.90;;;;;;5024668;28;20021;-43
2022/04/12 00:35:08;;;;;;;2.60;1.10;;;22.50;38.00;;;;;;5024485;28;20407;-43
2022/04/12 00:37:34;;;;;;;2.38;0.90;;;22.40;37.80;;;;;;5024934;28;20116;-43
2022/04/12 00:40:00;;;;;;;1.85;0.98;;;22.40;37.80;;;;;;5024730;28;20794;-43
2022/04/12 00:42:26;;;;;;;2.20;0.80;;;22.40;37.80;;;;;;5040877;28;20091;-43
2022/04/12 00:44:52;;;;;;;1.17;0.75;;;22.40;37.80;;;;;;5044479;28;20245;-43
2022/04/12 00:47:18;;;;;;;2.08;0.77;;;22.50;37.80;;;;;;5041636;28;20029;-43
2022/04/12 00:49:43;;;;;;;1.70;0.80;;;22.40;37.70;;;;;;5042384;28;20017;-43
2022/04/12 00:52:11;;;;;;;2.75;1.00;;;22.40;37.70;;;;;;5038435;28;20048;-43
2022/04/12 00:54:38;;;;;;;2.03;0.90;;;22.40;37.70;;;;;;5042189;28;20020;-43
2022/04/12 00:57:05;;;;;;;2.28;1.00;;;22.40;37.70;;;;;;5042024;28;20033;-43
2022/04/12 00:59:32;;;;;;;2.10;0.95;;;22.40;37.70;;;;;;5044074;28;20440;-43
2022/04/12 01:01:58;;;;;;;2.20;1.10;;;22.40;37.70;;;;;;5044512;28;20032;-43
2022/04/12 01:04:24;;;;;;;1.98;0.88;;;22.40;37.60;;;;;;5044211;28;20025;-43
2022/04/12 01:06:51;;;;;;;1.63;0.75;;;22.40;37.70;;;;;;5044233;28;20037;-43
2022/04/12 01:09:17;;;;;;;2.58;0.90;;;22.40;37.80;;;;;;5044016;28;20098;-43
2022/04/12 01:11:48;;;;;;;2.05;1.30;;;22.40;37.80;;;;;;5044145;28;20033;-43
2022/04/12 01:14:15;;;;;;;2.50;1.08;;;22.40;37.80;;;;;;5044139;28;20029;-43
2022/04/12 01:16:41;;;;;;;1.27;0.57;;;22.30;37.80;;;;;;5044677;28;20544;-44
2022/04/12 01:19:07;;;;;;;1.70;0.70;;;22.40;37.80;;;;;;5044271;28;20029;-44
2022/04/12 01:21:42;;;;;;;2.20;1.05;;;22.30;37.80;;;;;;5043980;28;20048;-43
2022/04/12 01:24:08;;;;;;;2.08;0.90;;;22.30;37.70;;;;;;5037581;28;20589;-43
2022/04/12 01:26:34;;;;;;;1.77;0.82;;;22.30;37.70;;;;;;5037866;28;20033;-43
2022/04/12 01:28:59;;;;;;;1.70;0.93;;;22.30;37.60;;;;;;5039979;28;20518;-43
2022/04/12 01:31:26;;;;;;;2.35;1.13;;;22.30;37.60;;;;;;5041686;28;20036;-43
2022/04/12 01:33:53;;;;;;;1.60;0.80;;;22.30;37.60;;;;;;5046011;28;20036;-43
2022/04/12 01:36:19;;;;;;;2.15;0.90;;;22.30;37.60;;;;;;5046417;28;20029;-43
2022/04/12 01:38:45;;;;;;;1.98;0.80;;;22.30;37.60;;;;;;5048348;28;20037;-43
2022/04/12 01:41:11;;;;;;;1.80;0.93;;;22.30;37.60;;;;;;5042870;28;20051;-43
2022/04/12 01:43:37;;;;;;;1.67;0.70;;;22.30;37.60;;;;;;5027885;28;20029;-43
2022/04/12 01:46:03;;;;;;;2.00;0.80;;;22.30;37.60;;;;;;5028063;28;20347;-43
2022/04/12 01:48:29;;;;;;;2.40;0.93;;;22.30;37.50;;;;;;5027970;28;20044;-43
2022/04/12 01:50:54;;;;;;;1.98;0.95;;;22.20;37.50;;;;;;5027774;28;20523;-43
2022/04/12 01:53:21;;;;;;;2.75;1.20;;;22.30;37.60;;;;;;5026331;28;20025;-43
2022/04/12 01:55:46;;;;;;;3.00;1.13;;;22.30;37.60;;;;;;5028479;28;20036;-43
2022/04/12 01:58:12;;;;;;;2.20;1.00;;;22.20;37.50;;;;;;5047404;28;20033;-43
2022/04/12 02:00:38;;;;;;;1.60;0.80;;;22.20;37.50;;;;;;5033493;28;20392;-43
2022/04/12 02:03:04;;;;;;;1.92;1.00;;;22.20;37.60;;;;;;5043711;28;20586;-43
2022/04/12 02:05:30;;;;;;;1.35;0.60;;;22.20;37.50;;;;;;5047426;28;20122;-43
2022/04/12 02:07:56;;;;;;;2.00;0.80;;;22.20;37.60;;;;;;5047269;28;20032;-43
2022/04/12 02:10:22;;;;;;;2.30;0.98;;;22.20;37.50;;;;;;5047798;28;20644;-43
2022/04/12 02:12:49;;;;;;;1.85;0.90;;;22.20;37.40;;;;;;5046823;28;20029;-43
2022/04/12 02:15:15;;;;;;;2.78;1.27;;;22.20;37.40;;;;;;5047385;28;20025;-43
2022/04/12 02:17:41;;;;;;;2.15;1.20;;;22.20;37.40;;;;;;5047086;28;20017;-43
2022/04/12 02:20:08;;;;;;;1.92;0.80;;;22.20;37.40;;;;;;5046889;28;20564;-43
2022/04/12 02:22:34;;;;;;;1.63;0.80;;;22.20;37.40;;;;;;5047096;28;20029;-43
2022/04/12 02:24:59;;;;;;;1.95;0.85;;;22.20;37.40;;;;;;5044285;28;20028;-43
2022/04/12 02:27:25;;;;;;;2.08;1.02;;;22.20;37.40;;;;;;5040606;28;20086;-43
2022/04/12 02:29:51;;;;;;;1.85;0.90;;;22.20;37.40;;;;;;5047187;28;20029;-43
2022/04/12 02:32:17;;;;;;;2.05;1.00;;;22.20;37.30;;;;;;5038693;28;20041;-43
2022/04/12 02:34:42;;;;;;;2.10;1.05;;;22.20;37.30;;;;;;5026819;28;20024;-43
2022/04/12 02:37:08;;;;;;;1.38;0.77;;;22.10;37.40;;;;;;5026881;28;20116;-43
2022/04/12 02:39:34;;;;;;;1.65;0.80;;;22.10;37.40;;;;;;5026623;28;20033;-43
2022/04/12 02:42:00;;;;;;;1.88;0.90;;;22.20;37.40;;;;;;5036685;28;20043;-43
2022/04/12 02:44:25;;;;;;;1.85;0.85;;;22.20;37.40;;;;;;5046513;28;20043;-43
2022/04/12 02:46:51;;;;;;;1.48;0.77;;;22.10;37.40;;;;;;5046775;28;20714;-43
2022/04/12 02:49:17;;;;;;;2.42;1.20;;;22.10;37.40;;;;;;5046958;28;20124;-42
2022/04/12 02:51:43;;;;;;;1.75;0.90;;;22.10;37.40;;;;;;5045464;28;20017;-43
2022/04/12 02:54:08;;;;;;;1.92;0.98;;;22.10;37.40;;;;;;5046698;28;20079;-43
2022/04/12 02:56:34;;;;;;;2.00;0.80;;;22.10;37.30;;;;;;5037996;28;20029;-43
2022/04/12 02:59:00;;;;;;;2.22;0.93;;;22.10;37.30;;;;;;5046677;28;20401;-42
2022/04/12 03:01:25;;;;;;;2.22;0.98;;;22.10;37.30;;;;;;5046547;28;20043;-43
2022/04/12 03:03:51;;;;;;;2.28;1.05;;;22.10;37.30;;;;;;5046088;28;20125;-43
2022/04/12 03:06:17;;;;;;;2.97;0.90;;;22.10;37.30;;;;;;5046538;28;20691;-43
2022/04/12 03:08:43;;;;;;;1.63;0.90;;;22.10;37.30;;;;;;5045713;28;20509;-43
2022/04/12 03:11:08;;;;;;;2.22;0.90;;;22.10;37.20;;;;;;5045984;28;20055;-43
2022/04/12 03:13:34;;;;;;;1.73;0.90;;;22.10;37.20;;;;;;5045594;28;20116;-43
2022/04/12 03:16:00;;;;;;;2.53;1.00;;;22.10;37.20;;;;;;5046248;28;20052;-43
2022/04/12 03:18:25;;;;;;;2.30;1.00;;;22.10;37.20;;;;;;5045995;28;20058;-43
2022/04/12 03:20:51;;;;;;;1.27;0.70;;;22.10;37.20;;;;;;5046163;28;20032;-43
2022/04/12 03:23:18;;;;;;;2.65;0.95;;;22.10;37.30;;;;;;5045812;28;20025;-43
2022/04/12 03:25:44;;;;;;;2.13;1.00;;;22.10;37.30;;;;;;5036850;28;20124;-43
2022/04/12 03:28:10;;;;;;;1.83;1.10;;;22.10;37.30;;;;;;5025777;28;20026;-43
2022/04/12 03:30:36;;;;;;;1.95;0.98;;;22.10;37.30;;;;;;5025959;28;20049;-43
2022/04/12 03:33:02;;;;;;;2.13;1.20;;;22.10;37.30;;;;;;5029297;28;20079;-43
2022/04/12 03:35:28;;;;;;;2.90;1.20;;;22.00;37.20;;;;;;5025814;28;20627;-43
2022/04/12 03:38:00;;;;;;;2.15;1.00;;;22.00;37.20;;;;;;5025747;28;20076;-43
2022/04/12 03:40:32;;;;;;;2.28;1.13;;;22.00;37.20;;;;;;5026637;28;20182;-43
2022/04/12 03:43:02;;;;;;;2.30;1.10;;;22.00;37.20;;;;;;5035649;28;20029;-43
2022/04/12 03:45:29;;;;;;;1.33;0.70;;;22.00;37.10;;;;;;5044658;28;20083;-43
2022/04/12 03:47:55;;;;;;;2.35;1.05;;;22.00;37.10;;;;;;5042499;28;20612;-43
2022/04/12 03:50:21;;;;;;;1.60;0.80;;;22.00;37.70;;;;;;5044578;28;20021;-43
2022/04/12 03:52:46;;;;;;;1.75;0.90;;;22.00;37.10;;;;;;5044296;28;20560;-43
2022/04/12 03:55:12;;;;;;;1.60;0.80;;;22.00;37.10;;;;;;5037413;28;20022;-43
2022/04/12 03:57:38;;;;;;;2.20;0.98;;;22.00;37.10;;;;;;5044713;28;20624;-43
2022/04/12 04:00:08;;;;;;;2.03;0.90;;;22.00;37.10;;;;;;5044902;28;20102;-43
2022/04/12 04:02:35;;;;;;;1.90;0.88;;;22.00;37.00;;;;;;5025137;28;20033;-43
2022/04/12 04:05:01;;;;;;;2.63;1.23;;;22.00;37.00;;;;;;5037016;28;20037;-42
2022/04/12 04:07:27;;;;;;;1.70;0.90;;;21.90;37.10;;;;;;5044132;28;20055;-43
2022/04/12 04:09:53;;;;;;;1.45;0.80;;;22.00;37.10;;;;;;5042669;28;20485;-42
2022/04/12 04:12:20;;;;;;;2.25;0.88;;;22.00;37.10;;;;;;5043672;28;20064;-43
2022/04/12 04:14:47;;;;;;;2.13;1.33;;;22.00;37.10;;;;;;5043926;28;20062;-43
2022/04/12 04:17:13;;;;;;;1.77;0.77;;;22.00;37.10;;;;;;5042891;28;20017;-43
2022/04/12 04:19:39;;;;;;;16.67;6.22;;;22.00;37.70;;;;;;5043912;28;20032;-43
2022/04/12 04:22:05;;;;;;;25.58;7.78;;;21.90;37.30;;;;;;5043886;28;20124;-43
2022/04/12 04:24:31;;;;;;;35.63;10.32;;;22.00;37.40;;;;;;5043057;28;20166;-43
2022/04/12 04:26:57;;;;;;;29.55;9.85;;;22.00;37.60;;;;;;5041016;28;20036;-43
2022/04/12 04:29:33;;;;;;;28.10;11.10;;;22.00;37.70;;;;;;5043914;28;20118;-43
2022/04/12 04:31:59;;;;;;;33.60;11.93;;;22.10;37.80;;;;;;5042895;28;20721;-44
2022/04/12 04:34:24;;;;;;;23.55;8.45;;;22.10;37.70;;;;;;5042022;28;20029;-43
2022/04/12 04:36:50;;;;;;;21.15;8.05;;;22.20;37.50;;;;;;5043262;28;20013;-43
2022/04/12 04:39:16;;;;;;;26.55;8.25;;;22.30;37.40;;;;;;5044031;28;20032;-43
2022/04/12 04:41:42;;;;;;;16.75;6.97;;;22.30;37.20;;;;;;5044227;28;20393;-44
2022/04/12 04:44:08;;;;;;;18.23;7.07;;;22.30;37.00;;;;;;5044015;28;20029;-46
2022/04/12 04:46:33;;;;;;;13.48;5.55;;;22.40;37.00;;;;;;5043928;28;20608;-45
2022/04/12 04:48:59;;;;;;;15.80;5.75;;;22.40;36.90;;;;;;5044412;28;20037;-45
2022/04/12 04:51:26;;;;;;;14.35;5.82;;;22.50;36.80;;;;;;5044233;28;20029;-44
2022/04/12 04:53:58;;;;;;;17.77;5.57;;;22.60;36.80;;;;;;5043984;28;20044;-44
2022/04/12 04:56:25;;;;;;;13.73;5.97;;;22.60;36.70;;;;;;5033633;28;20031;-44
2022/04/12 04:58:51;;;;;;;14.65;5.30;;;22.70;36.60;;;;;;5044259;28;20033;-45
2022/04/12 05:01:17;;;;;;;13.30;5.25;;;22.70;36.50;;;;;;5043160;28;20032;-44
2022/04/12 05:03:43;;;;;;;14.88;4.95;;;22.80;36.40;;;;;;5042418;28;20056;-45
2022/04/12 05:06:08;;;;;;;10.32;4.47;;;22.90;36.40;;;;;;5043477;28;20631;-44
2022/04/12 05:08:34;;;;;;;10.82;4.28;;;22.90;36.30;;;;;;5043522;28;20032;-45
2022/04/12 05:11:00;;;;;;;10.30;3.67;;;23.00;36.20;;;;;;5042900;28;20767;-45
2022/04/12 05:13:25;;;;;;;8.45;3.75;;;23.00;36.10;;;;;;5042444;28;20488;-44
2022/04/12 05:15:51;;;;;;;8.77;3.35;;;23.10;36.60;;;;;;5042597;28;20098;-44
2022/04/12 05:18:17;;;;;;;6.75;3.80;;;23.10;36.70;;;;;;5042588;28;20400;-45
2022/04/12 05:20:43;;;;;;;7.57;3.03;;;23.10;36.70;;;;;;5042385;28;20025;-45
2022/04/12 05:23:09;;;;;;;10.13;3.45;;;23.20;36.70;;;;;;5041845;28;20035;-43
2022/04/12 05:25:35;;;;;;;8.98;3.88;;;23.20;36.70;;;;;;5035846;28;20105;-43
2022/04/12 05:28:01;;;;;;;7.60;3.40;;;23.20;36.60;;;;;;5032913;28;20443;-43
2022/04/12 05:30:27;;;;;;;8.60;2.88;;;23.30;36.80;;;;;;5028806;28;20078;-44
2022/04/12 05:32:53;;;;;;;6.10;2.75;;;23.30;36.90;;;;;;5023652;28;20491;-44
2022/04/12 05:35:19;;;;;;;6.20;2.70;;;23.30;36.80;;;;;;5042520;28;20056;-45
2022/04/12 05:37:46;;;;;;;5.32;2.78;;;23.40;36.70;;;;;;5042418;28;20036;-44
2022/04/12 05:40:13;;;;;;;7.13;3.05;;;23.40;36.70;;;;;;5044201;28;20052;-45
2022/04/12 05:42:39;;;;;;;4.75;2.47;;;23.40;36.50;;;;;;5043778;28;20496;-44
2022/04/12 05:45:09;;;;;;;7.45;3.00;;;23.50;36.60;;;;;;5041792;28;20339;-44
2022/04/12 05:47:44;;;;;;;5.28;2.22;;;23.50;36.50;;;;;;5024517;28;20092;-44
2022/04/12 05:50:12;;;;;;;6.88;2.42;;;23.50;37.00;;;;;;5023619;28;20398;-44
2022/04/12 05:52:41;;;;;;;5.40;2.40;;;23.50;37.00;;;;;;5022355;28;20022;-43
2022/04/12 05:55:17;;;;;;;4.47;2.00;;;23.50;37.10;;;;;;5023642;28;20368;-44
2022/04/12 05:57:55;;;;;;;5.10;2.35;;;23.50;37.10;;;;;;5023912;28;20473;-44
2022/04/12 06:00:22;;;;;;;4.95;2.03;;;23.50;37.10;;;;;;5023227;28;20038;-44
2022/04/12 06:02:49;;;;;;;5.15;2.35;;;23.50;37.10;;;;;;5023085;28;20276;-44
2022/04/12 06:05:15;;;;;;;3.90;1.90;;;23.50;37.10;;;;;;5023551;28;20238;-43
2022/04/12 06:07:42;;;;;;;4.95;2.10;;;23.50;37.00;;;;;;5023743;28;20067;-44
2022/04/12 06:10:10;;;;;;;3.72;1.98;;;23.50;37.00;;;;;;5023721;28;20037;-44
2022/04/12 06:12:36;;;;;;;4.15;2.15;;;23.50;37.00;;;;;;5033056;28;20301;-44
2022/04/12 06:15:03;;;;;;;5.20;2.30;;;23.50;36.80;;;;;;5042981;28;20648;-43
2022/04/12 06:17:33;;;;;;;5.72;2.47;;;23.50;36.40;;;;;;5043658;28;20025;-44
2022/04/12 06:20:04;;;;;;;4.43;1.90;;;23.50;36.20;;;;;;5046529;28;20492;-43
2022/04/12 06:22:30;;;;;;;4.93;2.20;;;23.60;36.10;;;;;;5045111;28;20238;-43
2022/04/12 06:24:56;;;;;;;4.85;1.80;;;23.50;36.00;;;;;;5046714;28;20049;-44
2022/04/12 06:27:50;;;;;;;6.85;2.22;;;23.50;36.00;;;;;;5045738;28;20053;-43
2022/04/12 06:30:18;;;;;;;4.18;1.83;;;23.50;36.10;;;;;;5043009;28;20032;-43
2022/04/12 06:32:45;;;;;;;4.05;1.85;;;23.50;35.90;;;;;;5045918;28;20032;-43
2022/04/12 06:35:11;;;;;;;3.60;1.90;;;23.50;35.90;;;;;;5046237;28;20057;-43
2022/04/12 06:37:39;;;;;;;5.28;2.28;;;23.50;35.90;;;;;;5046273;28;20029;-43
2022/04/12 06:40:07;;;;;;;5.13;2.40;;;23.50;36.00;;;;;;5046137;28;20021;-43
2022/04/12 06:42:33;;;;;;;5.93;2.35;;;23.50;36.00;;;;;;5045170;28;20358;-44
2022/04/12 06:44:58;;;;;;;5.88;2.10;;;23.50;35.90;;;;;;5044911;28;20176;-44
2022/04/12 06:47:24;;;;;;;5.82;2.50;;;23.50;35.90;;;;;;5045055;28;20056;-44
2022/04/12 06:49:51;;;;;;;5.60;2.83;;;23.40;35.90;;;;;;5046153;28;20068;-44
2022/04/12 06:52:19;;;;;;;4.30;1.90;;;23.40;35.70;;;;;;5046422;28;20106;-44
2022/04/12 06:54:44;;;;;;;6.72;1.92;;;23.40;35.60;;;;;;5044444;28;20029;-44
2022/04/12 06:57:10;;;;;;;6.03;2.60;;;23.40;35.60;;;;;;5044273;28;20074;-44
2022/04/12 06:59:36;;;;;;;5.55;2.28;;;23.40;35.60;;;;;;5038445;28;20037;-43
2022/04/12 07:02:03;;;;;;;5.88;2.20;;;23.40;35.50;;;;;;5026797;28;20543;-44
2022/04/12 07:04:29;;;;;;;4.35;2.20;;;23.40;35.50;;;;;;5025476;28;20033;-44
2022/04/12 07:06:56;;;;;;;4.93;2.33;;;23.40;35.50;;;;;;5025741;28;20055;-43
2022/04/12 07:09:23;;;;;;;3.13;1.60;;;23.30;35.50;;;;;;5026098;28;20477;-44
2022/04/12 07:11:49;;;;;;;4.25;2.03;;;23.40;35.50;;;;;;5029323;28;20025;-44
2022/04/12 07:14:15;;;;;;;4.38;2.00;;;23.30;35.50;;;;;;5046066;28;20350;-44
2022/04/12 07:16:41;;;;;;;3.80;1.90;;;23.30;35.50;;;;;;5045645;28;20021;-44
2022/04/12 07:19:06;;;;;;;5.35;2.30;;;23.30;35.50;;;;;;5046014;28;20025;-43
2022/04/12 07:21:32;;;;;;;5.25;2.20;;;23.30;35.50;;;;;;5044823;28;20116;-44
2022/04/12 07:24:03;;;;;;;5.85;2.20;;;23.30;35.50;;;;;;5044219;28;20397;-43
2022/04/12 07:26:29;;;;;;;4.22;1.58;;;23.20;35.50;;;;;;5043651;28;20051;-44
2022/04/12 07:28:55;;;;;;;3.20;1.55;;;23.30;35.40;;;;;;5045158;28;20259;-43
2022/04/12 07:31:20;;;;;;;3.70;1.73;;;23.20;35.30;;;;;;5025833;28;20231;-44
2022/04/12 07:33:46;;;;;;;3.55;1.52;;;23.20;35.40;;;;;;5025646;28;20025;-43
2022/04/12 07:36:12;;;;;;;4.20;1.75;;;23.20;35.40;;;;;;5023295;28;20018;-43
2022/04/12 07:38:38;;;;;;;3.05;1.60;;;23.20;35.40;;;;;;5027825;28;20041;-43
2022/04/12 07:41:04;;;;;;;3.55;1.65;;;23.20;35.30;;;;;;5024664;28;20045;-43
2022/04/12 07:43:30;;;;;;;3.60;1.85;;;23.20;35.30;;;;;;5041841;28;20505;-43
2022/04/12 07:45:56;;;;;;;4.30;2.03;;;23.20;35.50;;;;;;5043425;28;20061;-43
2022/04/12 07:48:22;;;;;;;3.38;1.67;;;23.20;35.30;;;;;;5045420;28;20072;-44
2022/04/12 07:50:48;;;;;;;3.13;1.80;;;23.20;35.30;;;;;;5044059;28;20021;-44
2022/04/12 07:53:13;;;;;;;5.05;1.80;;;23.20;35.30;;;;;;5043618;28;20060;-43
2022/04/12 07:55:39;;;;;;;3.20;1.60;;;23.20;35.30;;;;;;5043732;28;20031;-44
2022/04/12 07:58:05;;;;;;;4.13;1.90;;;23.30;35.30;;;;;;5045166;28;20094;-43
2022/04/12 08:00:31;;;;;;;4.68;1.73;;;23.20;35.20;;;;;;5031237;28;20511;-43
2022/04/12 08:02:57;;;;;;;4.55;2.08;;;23.30;35.30;;;;;;5024842;28;20030;-44
2022/04/12 08:05:23;;;;;;;4.57;1.73;;;23.30;35.20;;;;;;5024008;28;20108;-43
2022/04/12 08:07:49;;;;;;;3.40;1.38;;;23.30;35.20;;;;;;5022600;28;20051;-43
2022/04/12 08:10:16;;;;;;;3.80;1.95;;;23.30;35.20;;;;;;5024344;28;20104;-43
2022/04/12 08:12:42;;;;;;;4.03;1.75;;;23.30;35.20;;;;;;5034593;28;20480;-44
2022/04/12 08:15:12;;;;;;;3.97;1.90;;;23.30;35.30;;;;;;5043609;28;20108;-44
2022/04/12 08:17:38;;;;;;;4.35;2.05;;;23.30;35.30;;;;;;5044501;28;20500;-44
2022/04/12 08:20:05;;;;;;;4.10;1.92;;;23.30;35.20;;;;;;5044732;28;20037;-44
2022/04/12 08:22:34;;;;;;;5.15;1.83;;;23.30;35.20;;;;;;5044582;28;20040;-43
2022/04/12 08:24:59;;;;;;;4.15;1.70;;;23.30;35.20;;;;;;5043042;28;20033;-44
2022/04/12 08:27:26;;;;;;;4.53;1.98;;;23.30;35.20;;;;;;5042321;28;20531;-43
2022/04/12 08:29:52;;;;;;;3.50;1.60;;;23.30;35.10;;;;;;5035322;28;20041;-43
2022/04/12 08:32:18;;;;;;;3.97;1.90;;;23.30;35.10;;;;;;5024625;28;20079;-43
2022/04/12 08:34:45;;;;;;;3.75;1.73;;;23.30;35.10;;;;;;5023095;28;20036;-43
2022/04/12 08:37:11;;;;;;;4.00;1.83;;;23.30;35.20;;;;;;5023505;28;20033;-45
2022/04/12 08:39:37;;;;;;;3.83;1.75;;;23.30;35.10;;;;;;5026568;28;20033;-44
2022/04/12 08:42:05;;;;;;;2.90;1.20;;;23.30;35.20;;;;;;5027155;28;20025;-45
2022/04/12 08:44:32;;;;;;;3.97;1.90;;;23.30;35.10;;;;;;5043446;28;20067;-45
2022/04/12 08:47:02;;;;;;;3.30;1.60;;;23.30;35.10;;;;;;5043879;28;20047;-44
2022/04/12 08:49:29;;;;;;;4.80;2.22;;;23.30;35.10;;;;;;5044191;28;20064;-45
2022/04/12 08:51:55;;;;;;;3.20;1.55;;;23.30;35.10;;;;;;5044466;28;20025;-45
2022/04/12 08:54:20;;;;;;;4.03;1.67;;;23.30;35.10;;;;;;5044020;28;20488;-44
2022/04/12 08:56:48;;;;;;;3.70;1.52;;;23.30;35.10;;;;;;5044065;28;20032;-44
2022/04/12 08:59:16;;;;;;;2.63;1.48;;;23.30;35.10;;;;;;5041090;28;20551;-44
2022/04/12 09:01:42;;;;;;;3.28;1.55;;;23.30;35.10;;;;;;5023723;28;20021;-44
2022/04/12 09:04:08;;;;;;;3.65;1.50;;;23.30;35.10;;;;;;5023827;28;20040;-45
2022/04/12 09:06:35;;;;;;;4.65;1.75;;;23.40;35.10;;;;;;5023023;28;20120;-45
2022/04/12 09:09:11;;;;;;;3.97;1.77;;;23.30;35.10;;;;;;5023022;28;20473;-45
2022/04/12 09:11:41;;;;;;;2.97;1.45;;;23.40;35.10;;;;;;5022997;28;20022;-44
2022/04/12 09:14:13;;;;;;;2.75;1.27;;;23.40;35.10;;;;;;5023812;28;20022;-45
2022/04/12 09:16:45;;;;;;;3.53;1.73;;;23.40;35.10;;;;;;5023810;28;20551;-45
2022/04/12 09:19:11;;;;;;;3.08;1.33;;;23.40;35.00;;;;;;5022879;28;20043;-45
2022/04/12 09:21:47;;;;;;;4.65;1.65;;;23.40;35.10;;;;;;5024282;28;20063;-45
2022/04/12 09:24:20;;;;;;;2.70;1.38;;;23.40;35.00;;;;;;5022504;28;20030;-45
2022/04/12 09:26:53;;;;;;;;;;;23.40;35.00;;;;;;5024912;28;20029;-47
2022/04/12 09:29:29;;;;;;;3.15;1.33;;;23.40;35.00;;;;;;5039761;28;20369;-44
2022/04/12 09:32:01;;;;;;;3.10;1.42;;;23.40;34.90;;;;;;5023798;28;20033;-45
2022/04/12 09:34:26;;;;;;;3.72;1.88;;;23.40;34.90;;;;;;5023253;28;20026;-45
2022/04/12 09:36:53;;;;;;;3.28;1.63;;;23.40;34.90;;;;;;5023122;28;20108;-45
2022/04/12 09:39:21;;;;;;;4.60;1.80;;;23.40;35.00;;;;;;5023856;28;20030;-45
2022/04/12 09:41:48;;;;;;;2.95;1.40;;;23.40;35.00;;;;;;5024845;28;20178;-44
2022/04/12 09:44:17;;;;;;;2.70;1.50;;;23.40;35.70;;;;;;5022815;28;20067;-45
2022/04/12 09:46:44;;;;;;;2.85;1.30;;;23.40;35.00;;;;;;5024299;28;20029;-45
2022/04/12 09:49:10;;;;;;;3.40;1.40;;;23.40;35.00;;;;;;5023855;28;20183;-44
2022/04/12 09:51:37;;;;;;;2.47;1.25;;;23.40;35.00;;;;;;5026681;28;20036;-45
2022/04/12 09:54:08;;;;;;;2.80;1.33;;;23.40;35.00;;;;;;5027168;28;20022;-45
2022/04/12 09:56:36;;;;;;;3.25;1.45;;;23.40;35.00;;;;;;5027751;28;20029;-45
2022/04/12 09:59:07;;;;;;;3.05;1.38;;;23.40;35.00;;;;;;5044273;28;20536;-45
2022/04/12 10:01:39;;;;;;;3.67;1.40;;;23.40;35.00;;;;;;5027385;28;20108;-44
2022/04/12 10:04:08;;;;;;;2.65;1.38;;;23.40;35.00;;;;;;5027285;28;20534;-45
2022/04/12 10:06:39;;;;;;;2.63;1.23;;;23.40;35.00;;;;;;5027063;28;20481;-44
2022/04/12 10:09:07;;;;;;;2.78;1.38;;;23.40;35.00;;;;;;5027258;28;20553;-45
2022/04/12 10:11:33;;;;;;;2.40;1.10;;;23.40;35.00;;;;;;5027692;28;20033;-45
2022/04/12 10:14:01;;;;;;;2.72;1.20;;;23.40;35.00;;;;;;5045338;28;20025;-45
2022/04/12 10:16:27;;;;;;;2.65;1.30;;;23.40;35.00;;;;;;5047135;28;20037;-44
2022/04/12 10:18:54;;;;;;;2.65;1.23;;;23.50;35.00;;;;;;5029184;28;20660;-45
2022/04/12 10:21:22;;;;;;;3.10;1.33;;;23.50;35.00;;;;;;5046817;28;20056;-45
2022/04/12 10:23:56;;;;;;;3.90;1.35;;;23.50;35.00;;;;;;5046824;28;20033;-45
2022/04/12 10:26:24;;;;;;;2.92;1.23;;;23.50;35.00;;;;;;5046823;28;20029;-45
2022/04/12 10:28:54;;;;;;;2.95;1.50;;;23.50;35.00;;;;;;5046945;28;20037;-46
2022/04/12 10:31:24;;;;;;;3.80;1.42;;;23.50;35.00;;;;;;5026444;28;20022;-45
2022/04/12 10:34:09;;;;;;;3.45;1.40;;;23.50;35.00;;;;;;5026203;28;20025;-45
2022/04/12 10:37:14;;;;;;;2.42;1.13;;;23.50;35.00;;;;;;5026680;28;20030;-45
2022/04/12 10:39:46;;;;;;;2.88;1.40;;;23.50;35.10;;;;;;5007300;28;20077;-45
2022/04/12 10:42:24;;;;;;;3.70;1.30;;;23.50;35.10;;;;;;5035987;28;20283;-44
2022/04/12 10:44:57;;;;;;;2.25;1.10;;;23.50;35.00;;;;;;5025453;28;20037;-45
2022/04/12 10:47:34;;;;;;;2.97;1.40;;;23.50;35.00;;;;;;5026735;28;20036;-45
2022/04/12 10:50:08;;;;;;;2.67;1.30;;;23.50;35.10;;;;;;5026673;28;20030;-45
2022/04/12 10:52:35;;;;;;;2.80;1.25;;;23.50;35.00;;;;;;5025913;28;20520;-45
2022/04/12 10:55:04;;;;;;;2.80;1.33;;;23.60;35.00;;;;;;5026710;28;20033;-45
2022/04/12 10:57:30;;;;;;;2.30;1.10;;;23.50;35.00;;;;;;5031499;28;20100;-45
2022/04/12 10:59:59;;;;;;;3.13;1.50;;;23.50;35.00;;;;;;5035945;28;20108;-45
2022/04/12 11:02:30;;;;;;;2.17;1.10;;;23.60;34.90;;;;;;5025932;28;20052;-44
2022/04/12 11:04:57;;;;;;;2.20;1.05;;;23.50;35.00;;;;;;5026403;28;20509;-46
2022/04/12 11:07:29;;;;;;;3.00;1.20;;;23.50;35.00;;;;;;5026007;28;20060;-45
2022/04/12 11:10:18;;;;;;;3.00;1.20;;;23.50;35.00;;;;;;5026419;28;20034;-45
2022/04/12 11:12:44;;;;;;;2.67;1.23;;;23.50;35.10;;;;;;5032670;28;20033;-45
2022/04/12 11:15:28;;;;;;;2.80;1.48;;;23.50;35.00;;;;;;5046279;28;20074;-45
2022/04/12 11:18:10;;;;;;;2.08;1.15;;;23.50;35.10;;;;;;5046338;28;20025;-45
2022/04/12 11:20:39;;;;;;;2.83;1.30;;;23.50;35.00;;;;;;5045881;28;20021;-45
2022/04/12 11:23:08;;;;;;;3.38;1.38;;;23.50;35.00;;;;;;5045647;28;20536;-46
2022/04/12 11:25:43;;;;;;;3.13;1.40;;;23.60;35.00;;;;;;5046071;28;20048;-45
2022/04/12 11:28:10;;;;;;;2.63;1.10;;;23.50;35.00;;;;;;5045759;28;20072;-44
2022/04/12 11:30:36;;;;;;;2.80;1.08;;;23.50;35.10;;;;;;5030736;28;20033;-45
2022/04/12 11:33:02;;;;;;;2.92;1.15;;;23.50;35.10;;;;;;5024515;28;20032;-49
2022/04/12 11:35:30;;;;;;;2.28;1.13;;;23.50;35.20;;;;;;5025879;28;20581;-44
2022/04/12 11:37:56;;;;;;;2.22;1.10;;;23.50;35.20;;;;;;5026465;28;20098;-45
2022/04/12 11:40:25;;;;;;;2.08;1.10;;;23.50;35.10;;;;;;5025591;28;20510;-45
2022/04/12 11:42:54;;;;;;;2.38;0.90;;;23.60;35.10;;;;;;5034895;28;20060;-45
2022/04/12 11:45:30;;;;;;;2.35;1.00;;;23.60;35.10;;;;;;5045470;28;20025;-45
2022/04/12 11:47:57;;;;;;;2.65;1.30;;;23.60;35.10;;;;;;5045526;28;20020;-45
2022/04/12 11:50:23;;;;;;;2.88;1.10;;;23.60;35.20;;;;;;5045607;28;20032;-45
2022/04/12 11:52:49;;;;;;;2.47;1.25;;;23.60;35.10;;;;;;5043793;28;20025;-46
2022/04/12 11:55:15;;;;;;;2.88;1.15;;;23.60;35.10;;;;;;5045248;28;20052;-46
2022/04/12 11:57:41;;;;;;;2.90;1.20;;;23.70;35.20;;;;;;5031926;28;20055;-45
2022/04/12 12:00:08;;;;;;;2.60;1.27;;;23.70;35.20;;;;;;5045098;28;20388;-46
2022/04/12 12:02:38;;;;;;;2.40;1.25;;;23.70;35.20;;;;;;5044466;28;20025;-44
2022/04/12 12:05:08;;;;;;;2.45;1.08;;;23.70;35.20;;;;;;5045046;28;20461;-45
2022/04/12 12:07:36;;;;;;;3.03;1.20;;;23.70;35.80;;;;;;5044554;28;20036;-45
2022/04/12 12:10:15;;;;;;;2.55;1.10;;;23.80;35.20;;;;;;5045188;28;20021;-45
2022/04/12 12:12:46;;;;;;;2.65;1.25;;;23.80;35.20;;;;;;5043565;28;20029;-46
2022/04/12 12:15:22;;;;;;;3.40;1.25;;;23.80;35.10;;;;;;5045254;28;20542;-43
2022/04/12 12:17:49;;;;;;;1.92;1.10;;;23.80;35.10;;;;;;5044753;28;20060;-44
2022/04/12 12:20:19;;;;;;;2.65;1.10;;;23.80;35.10;;;;;;5043314;28;20167;-43
2022/04/12 12:22:49;;;;;;;1.70;0.90;;;23.90;35.10;;;;;;5044323;28;20814;-44
2022/04/12 12:25:18;;;;;;;1.52;0.75;;;23.90;35.10;;;;;;5044486;28;20056;-44
2022/04/12 12:27:52;;;;;;;2.08;0.98;;;23.90;35.00;;;;;;5027428;28;20033;-44
2022/04/12 12:30:27;;;;;;;2.45;1.00;;;24.00;34.90;;;;;;5025124;28;20397;-43
2022/04/12 12:32:56;;;;;;;2.00;0.90;;;24.00;34.80;;;;;;5024664;28;20021;-44
2022/04/12 12:35:28;;;;;;;3.13;1.00;;;24.00;34.80;;;;;;5024675;28;20087;-44
2022/04/12 12:38:14;;;;;;;2.10;1.10;;;24.10;34.80;;;;;;5024588;28;20485;-44
2022/04/12 12:40:41;;;;;;;2.55;1.10;;;24.10;34.80;;;;;;5024623;28;20622;-44
2022/04/12 12:43:09;;;;;;;2.53;1.30;;;24.10;34.70;;;;;;5036069;28;20025;-44
2022/04/12 12:45:38;;;;;;;2.95;1.30;;;24.10;34.60;;;;;;5044008;28;20108;-44
2022/04/12 12:48:07;;;;;;;2.45;0.80;;;24.10;34.70;;;;;;5043502;28;20033;-44
2022/04/12 12:50:36;;;;;;;1.92;0.90;;;24.20;34.50;;;;;;5043736;28;20688;-44